sensor_id;sensor_type;location;lat;lon;timestamp;pressure;altitude;pressure_sealevel;temperature;humidity
21838;BME280;11081;45.946;6.140;2023-03-03T00:01:39;95142.28;;;3.84;71.86
21838;BME280;11081;45.946;6.140;2023-03-03T00:04:07;95137.91;;;3.85;70.84
21838;BME280;11081;45.946;6.140;2023-03-03T00:06:35;95142.09;;;3.71;72.00
21838;BME280;11081;45.946;6.140;2023-03-03T00:09:04;95142.91;;;3.72;71.78
21838;BME280;11081;45.946;6.140;2023-03-03T00:11:32;95136.50;;;3.67;72.26
21838;BME280;11081;45.946;6.140;2023-03-03T00:14:00;95131.34;;;3.67;71.93
21838;BME280;11081;45.946;6.140;2023-03-03T00:16:30;95137.47;;;3.66;72.26
21838;BME280;11081;45.946;6.140;2023-03-03T00:19:02;95134.19;;;3.73;71.93
21838;BME280;11081;45.946;6.140;2023-03-03T00:21:31;95134.38;;;3.56;72.42
21838;BME280;11081;45.946;6.140;2023-03-03T00:24:21;95141.13;;;3.57;72.61
21838;BME280;11081;45.946;6.140;2023-03-03T00:26:51;95135.00;;;3.58;72.22
21838;BME280;11081;45.946;6.140;2023-03-03T00:29:33;95143.19;;;3.62;72.22
21838;BME280;11081;45.946;6.140;2023-03-03T00:32:23;95146.97;;;3.51;71.95
21838;BME280;11081;45.946;6.140;2023-03-03T00:34:53;95151.69;;;3.48;72.44
21838;BME280;11081;45.946;6.140;2023-03-03T00:37:26;95141.28;;;3.41;72.16
21838;BME280;11081;45.946;6.140;2023-03-03T00:40:11;95147.78;;;3.37;72.25
21838;BME280;11081;45.946;6.140;2023-03-03T00:42:41;95155.97;;;3.41;72.53
21838;BME280;11081;45.946;6.140;2023-03-03T00:45:22;95148.75;;;3.36;72.91
21838;BME280;11081;45.946;6.140;2023-03-03T00:47:51;95147.50;;;3.32;72.95
21838;BME280;11081;45.946;6.140;2023-03-03T00:50:30;95147.50;;;3.32;72.79
21838;BME280;11081;45.946;6.140;2023-03-03T00:53:04;95144.13;;;3.31;72.73
21838;BME280;11081;45.946;6.140;2023-03-03T00:55:34;95150.72;;;3.34;72.83
21838;BME280;11081;45.946;6.140;2023-03-03T00:58:03;95156.31;;;3.38;72.77
21838;BME280;11081;45.946;6.140;2023-03-03T01:00:36;95155.41;;;3.30;72.76
21838;BME280;11081;45.946;6.140;2023-03-03T01:03:07;95155.31;;;3.24;72.88
21838;BME280;11081;45.946;6.140;2023-03-03T01:05:36;95150.69;;;3.19;73.38
21838;BME280;11081;45.946;6.140;2023-03-03T01:08:04;95143.75;;;3.20;72.90
21838;BME280;11081;45.946;6.140;2023-03-03T01:10:37;95152.47;;;3.19;73.53
21838;BME280;11081;45.946;6.140;2023-03-03T01:13:06;95155.66;;;3.21;72.94
21838;BME280;11081;45.946;6.140;2023-03-03T01:15:35;95153.84;;;3.06;74.07
21838;BME280;11081;45.946;6.140;2023-03-03T01:18:04;95152.69;;;3.09;73.97
21838;BME280;11081;45.946;6.140;2023-03-03T01:20:32;95150.50;;;3.21;73.55
21838;BME280;11081;45.946;6.140;2023-03-03T01:23:00;95155.03;;;3.19;73.35
21838;BME280;11081;45.946;6.140;2023-03-03T01:25:28;95150.50;;;3.21;73.59
21838;BME280;11081;45.946;6.140;2023-03-03T01:27:58;95159.22;;;3.20;73.77
21838;BME280;11081;45.946;6.140;2023-03-03T01:30:27;95158.25;;;3.21;73.78
21838;BME280;11081;45.946;6.140;2023-03-03T01:32:55;95155.31;;;3.24;73.71
21838;BME280;11081;45.946;6.140;2023-03-03T01:35:23;95150.16;;;3.24;73.63
21838;BME280;11081;45.946;6.140;2023-03-03T01:37:51;95161.28;;;3.24;73.98
21838;BME280;11081;45.946;6.140;2023-03-03T01:40:21;95153.34;;;3.26;73.89
21838;BME280;11081;45.946;6.140;2023-03-03T01:42:50;95148.19;;;3.26;74.29
21838;BME280;11081;45.946;6.140;2023-03-03T01:45:23;95145.97;;;3.23;74.27
21838;BME280;11081;45.946;6.140;2023-03-03T01:47:54;95144.66;;;3.27;74.01
21838;BME280;11081;45.946;6.140;2023-03-03T01:50:31;95146.25;;;3.28;74.27
21838;BME280;11081;45.946;6.140;2023-03-03T01:53:04;95141.44;;;3.25;74.10
21838;BME280;11081;45.946;6.140;2023-03-03T01:55:36;95148.09;;;3.19;74.61
21838;BME280;11081;45.946;6.140;2023-03-03T01:58:09;95137.78;;;3.19;74.50
21838;BME280;11081;45.946;6.140;2023-03-03T02:00:41;95139.31;;;3.14;74.38
21838;BME280;11081;45.946;6.140;2023-03-03T02:03:11;95143.13;;;3.18;74.59
21838;BME280;11081;45.946;6.140;2023-03-03T02:05:41;95141.19;;;3.20;74.19
21838;BME280;11081;45.946;6.140;2023-03-03T02:08:11;95143.75;;;3.20;74.28
21838;BME280;11081;45.946;6.140;2023-03-03T02:10:42;95144.56;;;3.20;73.60
21838;BME280;11081;45.946;6.140;2023-03-03T02:13:11;95145.13;;;3.08;73.65
21838;BME280;11081;45.946;6.140;2023-03-03T02:15:41;95147.78;;;2.99;73.74
21838;BME280;11081;45.946;6.140;2023-03-03T02:18:11;95146.19;;;2.98;73.86
21838;BME280;11081;45.946;6.140;2023-03-03T02:20:53;95143.97;;;2.95;73.67
21838;BME280;11081;45.946;6.140;2023-03-03T02:23:29;95137.84;;;2.96;73.55
21838;BME280;11081;45.946;6.140;2023-03-03T02:26:04;95134.00;;;2.92;73.76
21838;BME280;11081;45.946;6.140;2023-03-03T02:28:35;95137.47;;;2.99;73.95
21838;BME280;11081;45.946;6.140;2023-03-03T02:31:08;95132.31;;;2.99;73.81
21838;BME280;11081;45.946;6.140;2023-03-03T02:33:40;95139.63;;;2.73;74.37
21838;BME280;11081;45.946;6.140;2023-03-03T02:36:11;95148.53;;;2.39;75.25
21838;BME280;11081;45.946;6.140;2023-03-03T02:38:45;95142.88;;;2.44;75.19
21838;BME280;11081;45.946;6.140;2023-03-03T02:41:24;95141.38;;;2.50;74.98
21838;BME280;11081;45.946;6.140;2023-03-03T02:43:58;95140.38;;;2.59;74.97
21838;BME280;11081;45.946;6.140;2023-03-03T02:46:27;95137.38;;;2.70;74.58
21838;BME280;11081;45.946;6.140;2023-03-03T02:48:55;95143.47;;;2.77;74.45
21838;BME280;11081;45.946;6.140;2023-03-03T02:51:23;95145.50;;;2.82;74.43
21838;BME280;11081;45.946;6.140;2023-03-03T02:53:51;95141.50;;;2.79;74.69
21838;BME280;11081;45.946;6.140;2023-03-03T02:56:21;95141.50;;;2.79;74.97
21838;BME280;11081;45.946;6.140;2023-03-03T02:58:49;95140.88;;;2.77;74.92
21838;BME280;11081;45.946;6.140;2023-03-03T03:01:17;95143.47;;;2.77;74.62
21838;BME280;11081;45.946;6.140;2023-03-03T03:03:45;95143.63;;;2.75;75.11
21838;BME280;11081;45.946;6.140;2023-03-03T03:06:18;95140.25;;;2.75;74.74
21838;BME280;11081;45.946;6.140;2023-03-03T03:08:46;95141.59;;;2.71;75.04
21838;BME280;11081;45.946;6.140;2023-03-03T03:11:14;95149.63;;;2.68;75.05
21838;BME280;11081;45.946;6.140;2023-03-03T03:13:44;95152.84;;;2.70;74.80
21838;BME280;11081;45.946;6.140;2023-03-03T03:16:12;95146.72;;;2.71;75.09
21838;BME280;11081;45.946;6.140;2023-03-03T03:18:40;95150.56;;;2.75;75.02
21838;BME280;11081;45.946;6.140;2023-03-03T03:21:10;95153.41;;;2.80;74.93
21838;BME280;11081;45.946;6.140;2023-03-03T03:23:39;95153.41;;;2.80;75.20
21838;BME280;11081;45.946;6.140;2023-03-03T03:26:08;95154.22;;;2.81;75.12
21838;BME280;11081;45.946;6.140;2023-03-03T03:28:37;95156.97;;;2.79;74.82
21838;BME280;11081;45.946;6.140;2023-03-03T03:31:08;95158.91;;;2.77;75.18
21838;BME280;11081;45.946;6.140;2023-03-03T03:33:36;95148.25;;;2.80;74.95
21838;BME280;11081;45.946;6.140;2023-03-03T03:36:06;95157.94;;;2.78;75.16
21838;BME280;11081;45.946;6.140;2023-03-03T03:38:35;95161.22;;;2.72;74.95
21838;BME280;11081;45.946;6.140;2023-03-03T03:41:06;95153.19;;;2.67;75.24
21838;BME280;11081;45.946;6.140;2023-03-03T03:43:34;95154.78;;;2.68;75.29
21838;BME280;11081;45.946;6.140;2023-03-03T03:46:03;95143.81;;;2.74;75.06
21838;BME280;11081;45.946;6.140;2023-03-03T03:48:33;95150.13;;;2.71;74.95
21838;BME280;11081;45.946;6.140;2023-03-03T03:51:04;95151.56;;;2.66;75.42
21838;BME280;11081;45.946;6.140;2023-03-03T03:53:33;95151.56;;;2.66;75.23
21838;BME280;11081;45.946;6.140;2023-03-03T03:56:01;95149.97;;;2.65;75.43
21838;BME280;11081;45.946;6.140;2023-03-03T03:58:29;95160.00;;;2.60;75.60
21838;BME280;11081;45.946;6.140;2023-03-03T04:01:03;95155.81;;;2.59;75.40
21838;BME280;11081;45.946;6.140;2023-03-03T04:03:35;95150.66;;;2.59;75.51
21838;BME280;11081;45.946;6.140;2023-03-03T04:06:09;95152.97;;;2.54;75.70
21838;BME280;11081;45.946;6.140;2023-03-03T04:08:37;95147.19;;;2.52;75.93
21838;BME280;11081;45.946;6.140;2023-03-03T04:11:07;95149.75;;;2.52;75.90
21838;BME280;11081;45.946;6.140;2023-03-03T04:13:36;95160.06;;;2.52;76.00
21838;BME280;11081;45.946;6.140;2023-03-03T04:16:06;95154.75;;;2.53;76.11
21838;BME280;11081;45.946;6.140;2023-03-03T04:18:36;95158.13;;;2.54;75.93
21838;BME280;11081;45.946;6.140;2023-03-03T04:21:05;95165.22;;;2.52;75.93
21838;BME280;11081;45.946;6.140;2023-03-03T04:23:33;95158.13;;;2.54;76.08
21838;BME280;11081;45.946;6.140;2023-03-03T04:26:01;95161.66;;;2.53;75.29
21838;BME280;11081;45.946;6.140;2023-03-03T04:28:29;95159.19;;;2.28;76.39
21838;BME280;11081;45.946;6.140;2023-03-03T04:30:58;95156.16;;;2.33;76.46
21838;BME280;11081;45.946;6.140;2023-03-03T04:33:28;95161.75;;;2.36;76.48
21838;BME280;11081;45.946;6.140;2023-03-03T04:35:59;95157.88;;;2.40;76.42
21838;BME280;11081;45.946;6.140;2023-03-03T04:38:27;95159.13;;;2.44;76.65
21838;BME280;11081;45.946;6.140;2023-03-03T04:40:55;95156.72;;;2.43;76.15
21838;BME280;11081;45.946;6.140;2023-03-03T04:43:26;95158.50;;;2.42;76.17
21838;BME280;11081;45.946;6.140;2023-03-03T04:45:55;95152.72;;;2.40;75.69
21838;BME280;11081;45.946;6.140;2023-03-03T04:48:24;95162.09;;;2.33;76.51
21838;BME280;11081;45.946;6.140;2023-03-03T04:50:52;95165.31;;;2.35;76.53
21838;BME280;11081;45.946;6.140;2023-03-03T04:53:22;95160.16;;;2.35;76.18
21838;BME280;11081;45.946;6.140;2023-03-03T04:55:51;95163.69;;;2.34;76.39
21838;BME280;11081;45.946;6.140;2023-03-03T04:58:21;95164.03;;;2.31;77.16
21838;BME280;11081;45.946;6.140;2023-03-03T05:00:53;95162.09;;;2.33;76.79
21838;BME280;11081;45.946;6.140;2023-03-03T05:03:23;95163.69;;;2.34;76.89
21838;BME280;11081;45.946;6.140;2023-03-03T05:05:52;95163.69;;;2.34;76.52
21838;BME280;11081;45.946;6.140;2023-03-03T05:08:22;95166.28;;;2.34;76.54
21838;BME280;11081;45.946;6.140;2023-03-03T05:10:51;95172.41;;;2.33;77.03
21838;BME280;11081;45.946;6.140;2023-03-03T05:13:20;95175.13;;;2.32;76.98
21838;BME280;11081;45.946;6.140;2023-03-03T05:15:49;95164.34;;;2.28;77.32
21838;BME280;11081;45.946;6.140;2023-03-03T05:18:18;95171.59;;;2.33;77.16
21838;BME280;11081;45.946;6.140;2023-03-03T05:20:46;95173.66;;;2.37;77.17
21838;BME280;11081;45.946;6.140;2023-03-03T05:23:14;95173.31;;;2.40;77.00
21838;BME280;11081;45.946;6.140;2023-03-03T05:25:44;95170.44;;;2.35;76.94
21838;BME280;11081;45.946;6.140;2023-03-03T05:28:13;95176.28;;;2.29;77.62
21838;BME280;11081;45.946;6.140;2023-03-03T05:30:41;95170.66;;;2.26;77.22
21838;BME280;11081;45.946;6.140;2023-03-03T05:33:12;95172.72;;;2.30;76.99
21838;BME280;11081;45.946;6.140;2023-03-03T05:35:41;95172.06;;;2.28;76.84
21838;BME280;11081;45.946;6.140;2023-03-03T05:38:09;95171.78;;;2.23;77.38
21838;BME280;11081;45.946;6.140;2023-03-03T05:40:37;95169.84;;;2.25;77.16
21838;BME280;11081;45.946;6.140;2023-03-03T05:43:06;95173.03;;;2.27;77.45
21838;BME280;11081;45.946;6.140;2023-03-03T05:45:34;95171.44;;;2.26;77.38
21838;BME280;11081;45.946;6.140;2023-03-03T05:48:02;95175.00;;;2.25;77.27
21838;BME280;11081;45.946;6.140;2023-03-03T05:50:31;95175.00;;;2.25;77.38
21838;BME280;11081;45.946;6.140;2023-03-03T05:52:59;95176.94;;;2.23;77.65
21838;BME280;11081;45.946;6.140;2023-03-03T05:55:27;95183.34;;;2.27;77.16
21838;BME280;11081;45.946;6.140;2023-03-03T05:57:55;95173.84;;;2.28;77.48
21838;BME280;11081;45.946;6.140;2023-03-03T06:00:24;95182.09;;;2.23;76.59
21838;BME280;11081;45.946;6.140;2023-03-03T06:02:52;95172.47;;;2.17;76.75
21838;BME280;11081;45.946;6.140;2023-03-03T06:05:20;95188.25;;;2.14;77.48
21838;BME280;11081;45.946;6.140;2023-03-03T06:07:49;95186.66;;;2.13;77.13
21838;BME280;11081;45.946;6.140;2023-03-03T06:10:17;95188.59;;;2.11;77.90
21838;BME280;11081;45.946;6.140;2023-03-03T06:12:49;95186.66;;;2.13;77.85
21838;BME280;11081;45.946;6.140;2023-03-03T06:15:17;95190.19;;;2.12;77.46
21838;BME280;11081;45.946;6.140;2023-03-03T06:17:47;95186.66;;;2.13;77.82
21838;BME280;11081;45.946;6.140;2023-03-03T06:20:15;95188.59;;;2.11;78.12
21838;BME280;11081;45.946;6.140;2023-03-03T06:22:43;95188.25;;;2.14;77.81
21838;BME280;11081;45.946;6.140;2023-03-03T06:25:11;95193.06;;;2.17;77.70
21838;BME280;11081;45.946;6.140;2023-03-03T06:27:39;95191.13;;;2.19;78.04
21838;BME280;11081;45.946;6.140;2023-03-03T06:30:08;95189.19;;;2.21;78.05
21838;BME280;11081;45.946;6.140;2023-03-03T06:32:36;95203.25;;;2.02;78.38
21838;BME280;11081;45.946;6.140;2023-03-03T06:35:07;95205.44;;;1.66;80.33
21838;BME280;11081;45.946;6.140;2023-03-03T06:37:35;95195.13;;;1.66;80.63
21838;BME280;11081;45.946;6.140;2023-03-03T06:40:04;95193.84;;;1.78;79.80
21838;BME280;11081;45.946;6.140;2023-03-03T06:42:32;95201.56;;;1.78;79.70
21838;BME280;11081;45.946;6.140;2023-03-03T06:45:00;95209.56;;;1.92;79.43
21838;BME280;11081;45.946;6.140;2023-03-03T06:47:28;95207.97;;;1.91;79.69
21838;BME280;11081;45.946;6.140;2023-03-03T06:49:57;95206.03;;;1.93;79.62
21838;BME280;11081;45.946;6.140;2023-03-03T06:52:26;95214.03;;;1.98;78.42
21838;BME280;11081;45.946;6.140;2023-03-03T06:54:57;95216.56;;;2.06;77.58
21838;BME280;11081;45.946;6.140;2023-03-03T06:57:27;95215.47;;;2.08;77.57
21838;BME280;11081;45.946;6.140;2023-03-03T06:59:57;95221.19;;;2.19;76.83
21838;BME280;11081;45.946;6.140;2023-03-03T07:02:27;95226.47;;;2.25;76.64
21838;BME280;11081;45.946;6.140;2023-03-03T07:04:55;95228.06;;;2.26;76.25
21838;BME280;11081;45.946;6.140;2023-03-03T07:07:25;95229.03;;;2.33;76.24
21838;BME280;11081;45.946;6.140;2023-03-03T07:09:54;95235.00;;;2.34;76.19
21838;BME280;11081;45.946;6.140;2023-03-03T07:12:24;95229.97;;;2.40;76.26
21838;BME280;11081;45.946;6.140;2023-03-03T07:14:57;95226.41;;;2.41;76.24
21838;BME280;11081;45.946;6.140;2023-03-03T07:17:27;95227.50;;;2.47;76.48
21838;BME280;11081;45.946;6.140;2023-03-03T07:19:55;95224.63;;;2.50;76.11
21838;BME280;11081;45.946;6.140;2023-03-03T07:22:25;95231.84;;;2.55;76.22
21838;BME280;11081;45.946;6.140;2023-03-03T07:24:58;95232.13;;;2.60;76.42
21838;BME280;11081;45.946;6.140;2023-03-03T07:27:28;95227.31;;;2.57;76.85
21838;BME280;11081;45.946;6.140;2023-03-03T07:30:15;95233.50;;;2.39;77.94
21838;BME280;11081;45.946;6.140;2023-03-03T07:32:45;95237.97;;;2.45;77.62
21838;BME280;11081;45.946;6.140;2023-03-03T07:35:35;95231.84;;;2.55;77.48
21838;BME280;11081;45.946;6.140;2023-03-03T07:38:23;95238.81;;;2.69;76.70
21838;BME280;11081;45.946;6.140;2023-03-03T07:40:53;95238.16;;;2.75;76.52
21838;BME280;11081;45.946;6.140;2023-03-03T07:43:29;95239.75;;;2.76;76.03
21838;BME280;11081;45.946;6.140;2023-03-03T07:46:01;95243.88;;;2.85;75.96
21838;BME280;11081;45.946;6.140;2023-03-03T07:48:36;95246.13;;;2.88;76.06
21838;BME280;11081;45.946;6.140;2023-03-03T07:51:11;95243.59;;;2.80;76.30
21838;BME280;11081;45.946;6.140;2023-03-03T07:53:42;95248.34;;;2.91;76.46
21838;BME280;11081;45.946;6.140;2023-03-03T07:56:25;95252.47;;;2.78;76.81
21838;BME280;11081;45.946;6.140;2023-03-03T07:58:54;95254.28;;;2.69;77.45
21838;BME280;11081;45.946;6.140;2023-03-03T08:01:38;95257.59;;;2.55;77.77
21838;BME280;11081;45.946;6.140;2023-03-03T08:04:20;95263.06;;;2.52;78.37
21838;BME280;11081;45.946;6.140;2023-03-03T08:06:52;95265.25;;;2.63;77.78
21838;BME280;11081;45.946;6.140;2023-03-03T08:09:36;95269.09;;;2.75;77.43
21838;BME280;11081;45.946;6.140;2023-03-03T08:12:27;95270.63;;;2.84;77.50
21838;BME280;11081;45.946;6.140;2023-03-03T08:15:10;95271.25;;;2.86;77.59
21838;BME280;11081;45.946;6.140;2023-03-03T08:17:39;95273.81;;;2.94;77.47
21838;BME280;11081;45.946;6.140;2023-03-03T08:20:38;95266.91;;;3.10;77.61
21838;BME280;11081;45.946;6.140;2023-03-03T08:23:08;95265.91;;;3.19;77.23
21838;BME280;11081;45.946;6.140;2023-03-03T08:25:38;95269.66;;;3.31;77.20
21838;BME280;11081;45.946;6.140;2023-03-03T08:28:06;95267.09;;;3.31;76.94
21838;BME280;11081;45.946;6.140;2023-03-03T08:30:34;95270.66;;;3.30;77.59
21838;BME280;11081;45.946;6.140;2023-03-03T08:33:03;95266.69;;;3.42;77.42
21838;BME280;11081;45.946;6.140;2023-03-03T08:35:31;95262.09;;;3.52;76.94
21838;BME280;11081;45.946;6.140;2023-03-03T08:37:59;95261.81;;;3.47;77.75
21838;BME280;11081;45.946;6.140;2023-03-03T08:40:27;95257.63;;;3.46;77.39
21838;BME280;11081;45.946;6.140;2023-03-03T08:42:56;95266.94;;;3.55;77.17
21838;BME280;11081;45.946;6.140;2023-03-03T08:45:25;95262.00;;;3.46;78.08
21838;BME280;11081;45.946;6.140;2023-03-03T08:47:53;95260.97;;;3.55;78.49
21838;BME280;11081;45.946;6.140;2023-03-03T08:50:21;95255.75;;;3.78;77.86
21838;BME280;11081;45.946;6.140;2023-03-03T08:52:49;95257.63;;;3.84;77.80
21838;BME280;11081;45.946;6.140;2023-03-03T08:55:17;95253.19;;;3.78;79.48
21838;BME280;11081;45.946;6.140;2023-03-03T08:57:45;95252.34;;;3.62;80.59
21838;BME280;11081;45.946;6.140;2023-03-03T09:00:18;95243.63;;;3.63;80.67
21838;BME280;11081;45.946;6.140;2023-03-03T09:02:46;95254.66;;;3.57;81.06
21838;BME280;11081;45.946;6.140;2023-03-03T09:05:15;95259.50;;;3.90;79.21
21838;BME280;11081;45.946;6.140;2023-03-03T09:07:43;95258.97;;;4.09;78.77
21838;BME280;11081;45.946;6.140;2023-03-03T09:10:16;95250.88;;;4.27;78.30
21838;BME280;11081;45.946;6.140;2023-03-03T09:12:46;95256.66;;;4.44;77.48
21838;BME280;11081;45.946;6.140;2023-03-03T09:15:21;95257.19;;;4.54;77.09
21838;BME280;11081;45.946;6.140;2023-03-03T09:17:50;95262.44;;;4.46;77.31
21838;BME280;11081;45.946;6.140;2023-03-03T09:20:27;95256.56;;;4.37;77.12
21838;BME280;11081;45.946;6.140;2023-03-03T09:22:57;95254.53;;;4.33;77.80
21838;BME280;11081;45.946;6.140;2023-03-03T09:25:30;95255.78;;;4.07;78.67
21838;BME280;11081;45.946;6.140;2023-03-03T09:28:00;95260.06;;;4.00;79.42
21838;BME280;11081;45.946;6.140;2023-03-03T09:30:36;95269.47;;;3.93;80.90
21838;BME280;11081;45.946;6.140;2023-03-03T09:33:30;95267.09;;;4.06;78.79
21838;BME280;11081;45.946;6.140;2023-03-03T09:36:03;95259.78;;;4.10;79.56
21838;BME280;11081;45.946;6.140;2023-03-03T09:38:40;95259.44;;;3.98;80.97
21838;BME280;11081;45.946;6.140;2023-03-03T09:41:38;95263.31;;;3.94;81.15
21838;BME280;11081;45.946;6.140;2023-03-03T09:44:25;95264.22;;;3.86;81.22
21838;BME280;11081;45.946;6.140;2023-03-03T09:47:15;95269.03;;;4.04;81.26
21838;BME280;11081;45.946;6.140;2023-03-03T09:49:54;95267.19;;;4.27;79.25
21838;BME280;11081;45.946;6.140;2023-03-03T09:52:36;95268.06;;;4.35;78.58
21838;BME280;11081;45.946;6.140;2023-03-03T09:55:19;95262.38;;;4.24;79.47
21838;BME280;11081;45.946;6.140;2023-03-03T09:58:01;95276.63;;;4.20;78.25
21838;BME280;11081;45.946;6.140;2023-03-03T10:00:46;95266.66;;;4.17;79.54
21838;BME280;11081;45.946;6.140;2023-03-03T10:03:42;95266.28;;;4.50;78.76
21838;BME280;11081;45.946;6.140;2023-03-03T10:06:18;95270.38;;;4.29;78.99
21838;BME280;11081;45.946;6.140;2023-03-03T10:09:02;95271.00;;;4.32;78.83
21838;BME280;11081;45.946;6.140;2023-03-03T10:11:37;95281.94;;;4.63;77.33
21838;BME280;11081;45.946;6.140;2023-03-03T10:17:16;95283.59;;;5.00;75.81
21838;BME280;11081;45.946;6.140;2023-03-03T10:20:00;95282.75;;;5.00;76.46
21838;BME280;11081;45.946;6.140;2023-03-03T10:22:39;95288.28;;;4.97;75.33
21838;BME280;11081;45.946;6.140;2023-03-03T10:25:18;95283.34;;;4.80;75.69
21838;BME280;11081;45.946;6.140;2023-03-03T10:27:59;95277.44;;;4.86;76.50
21838;BME280;11081;45.946;6.140;2023-03-03T10:30:39;95271.28;;;4.87;76.42
21838;BME280;11081;45.946;6.140;2023-03-03T10:33:31;95274.75;;;4.95;76.13
21838;BME280;11081;45.946;6.140;2023-03-03T10:36:21;95264.88;;;4.83;77.68
21838;BME280;11081;45.946;6.140;2023-03-03T10:39:10;95263.31;;;5.04;76.37
21838;BME280;11081;45.946;6.140;2023-03-03T10:41:58;95271.47;;;5.22;76.20
21838;BME280;11081;45.946;6.140;2023-03-03T10:44:40;95273.78;;;5.17;76.16
21838;BME280;11081;45.946;6.140;2023-03-03T10:47:25;95277.81;;;4.83;76.69
21838;BME280;11081;45.946;6.140;2023-03-03T10:50:02;95285.78;;;4.67;77.65
21838;BME280;11081;45.946;6.140;2023-03-03T10:52:43;95278.53;;;4.77;78.18
21838;BME280;11081;45.946;6.140;2023-03-03T10:55:23;95279.53;;;4.98;78.19
21838;BME280;11081;45.946;6.140;2023-03-03T10:58:07;95273.16;;;4.94;77.96
21838;BME280;11081;45.946;6.140;2023-03-03T11:00:42;95273.44;;;4.84;77.79
21838;BME280;11081;45.946;6.140;2023-03-03T11:06:22;95278.75;;;4.61;79.64
21838;BME280;11081;45.946;6.140;2023-03-03T11:08:55;95276.16;;;4.46;79.69
21838;BME280;11081;45.946;6.140;2023-03-03T11:11:35;95272.31;;;4.57;79.22
21838;BME280;11081;45.946;6.140;2023-03-03T11:14:11;95270.75;;;4.77;79.15
21838;BME280;11081;45.946;6.140;2023-03-03T11:16:45;95275.63;;;5.02;77.70
21838;BME280;11081;45.946;6.140;2023-03-03T11:19:37;95271.16;;;4.96;79.31
21838;BME280;11081;45.946;6.140;2023-03-03T11:22:17;95278.84;;;5.04;78.05
21838;BME280;11081;45.946;6.140;2023-03-03T11:24:56;95277.72;;;5.13;77.77
21838;BME280;11081;45.946;6.140;2023-03-03T11:28:04;95277.56;;;5.00;77.32
21838;BME280;11081;45.946;6.140;2023-03-03T11:30:41;95275.38;;;5.18;77.24
21838;BME280;11081;45.946;6.140;2023-03-03T11:33:18;95276.88;;;5.06;77.29
21838;BME280;11081;45.946;6.140;2023-03-03T11:35:50;95275.03;;;5.21;77.45
21838;BME280;11081;45.946;6.140;2023-03-03T11:38:31;95286.13;;;5.36;76.08
21838;BME280;11081;45.946;6.140;2023-03-03T11:41:07;95285.63;;;5.47;75.71
21838;BME280;11081;45.946;6.140;2023-03-03T11:43:42;95278.63;;;5.41;76.27
21838;BME280;11081;45.946;6.140;2023-03-03T11:46:14;95274.91;;;5.50;76.04
21838;BME280;11081;45.946;6.140;2023-03-03T11:48:50;95280.94;;;5.58;76.01
21838;BME280;11081;45.946;6.140;2023-03-03T11:51:29;95276.38;;;5.60;76.19
21838;BME280;11081;45.946;6.140;2023-03-03T11:54:03;95270.16;;;5.54;75.98
21838;BME280;11081;45.946;6.140;2023-03-03T11:56:38;95272.00;;;5.60;76.26
21838;BME280;11081;45.946;6.140;2023-03-03T11:59:23;95270.69;;;5.71;75.12
21838;BME280;11081;45.946;6.140;2023-03-03T12:01:56;95278.88;;;5.74;74.93
21838;BME280;11081;45.946;6.140;2023-03-03T12:04:31;95267.47;;;5.62;76.12
21838;BME280;11081;45.946;6.140;2023-03-03T12:07:14;95266.16;;;5.51;75.91
21838;BME280;11081;45.946;6.140;2023-03-03T12:09:54;95265.91;;;5.68;75.03
21838;BME280;11081;45.946;6.140;2023-03-03T12:12:30;95259.44;;;5.57;74.98
21838;BME280;11081;45.946;6.140;2023-03-03T12:15:16;95255.16;;;5.71;74.45
21838;BME280;11081;45.946;6.140;2023-03-03T12:17:56;95263.19;;;5.82;74.08
21838;BME280;11081;45.946;6.140;2023-03-03T12:20:33;95255.75;;;5.94;74.38
21838;BME280;11081;45.946;6.140;2023-03-03T12:23:14;95252.41;;;6.00;74.36
21838;BME280;11081;45.946;6.140;2023-03-03T12:25:50;95250.69;;;6.07;74.15
21838;BME280;11081;45.946;6.140;2023-03-03T12:28:24;95253.50;;;6.13;73.61
21838;BME280;11081;45.946;6.140;2023-03-03T12:31:03;95255.47;;;6.10;73.55
21838;BME280;11081;45.946;6.140;2023-03-03T12:33:44;95248.69;;;6.09;73.77
21838;BME280;11081;45.946;6.140;2023-03-03T12:36:26;95251.91;;;6.11;73.41
21838;BME280;11081;45.946;6.140;2023-03-03T12:39:03;95255.75;;;5.94;72.80
21838;BME280;11081;45.946;6.140;2023-03-03T12:41:38;95253.28;;;5.86;73.23
21838;BME280;11081;45.946;6.140;2023-03-03T12:44:17;95256.50;;;5.88;73.67
21838;BME280;11081;45.946;6.140;2023-03-03T12:46:55;95261.19;;;5.78;74.37
21838;BME280;11081;45.946;6.140;2023-03-03T12:49:34;95250.38;;;5.68;73.66
21838;BME280;11081;45.946;6.140;2023-03-03T12:52:20;95252.56;;;5.71;75.14
21838;BME280;11081;45.946;6.140;2023-03-03T12:55:01;95245.78;;;5.70;74.89
21838;BME280;11081;45.946;6.140;2023-03-03T12:57:39;95246.03;;;5.75;74.11
21838;BME280;11081;45.946;6.140;2023-03-03T13:00:39;95245.16;;;5.89;73.80
21838;BME280;11081;45.946;6.140;2023-03-03T13:03:19;95238.00;;;5.91;73.65
21838;BME280;11081;45.946;6.140;2023-03-03T13:06:02;95239.97;;;5.89;74.15
21838;BME280;11081;45.946;6.140;2023-03-03T13:08:46;95232.97;;;5.83;73.65
21838;BME280;11081;45.946;6.140;2023-03-03T13:11:32;95234.38;;;5.86;73.60
21838;BME280;11081;45.946;6.140;2023-03-03T13:14:10;95236.47;;;6.03;74.31
21838;BME280;11081;45.946;6.140;2023-03-03T13:16:44;95236.34;;;6.11;72.72
21838;BME280;11081;45.946;6.140;2023-03-03T13:19:19;95243.31;;;5.83;72.83
21838;BME280;11081;45.946;6.140;2023-03-03T13:21:52;95241.81;;;5.95;73.36
21838;BME280;11081;45.946;6.140;2023-03-03T13:24:24;95237.47;;;6.02;72.58
21838;BME280;11081;45.946;6.140;2023-03-03T13:26:57;95241.81;;;5.95;73.90
21838;BME280;11081;45.946;6.140;2023-03-03T13:29:33;95240.97;;;5.88;73.35
21838;BME280;11081;45.946;6.140;2023-03-03T13:32:08;95234.72;;;6.04;72.68
21838;BME280;11081;45.946;6.140;2023-03-03T13:34:46;95233.81;;;5.90;72.40
21838;BME280;11081;45.946;6.140;2023-03-03T13:37:20;95238.72;;;6.06;72.40
21838;BME280;11081;45.946;6.140;2023-03-03T13:39:55;95242.34;;;6.19;72.32
21838;BME280;11081;45.946;6.140;2023-03-03T13:42:31;95240.75;;;6.18;72.64
21838;BME280;11081;45.946;6.140;2023-03-03T13:45:02;95232.47;;;6.29;72.32
21838;BME280;11081;45.946;6.140;2023-03-03T13:47:41;95241.56;;;6.18;72.75
21838;BME280;11081;45.946;6.140;2023-03-03T13:50:20;95233.75;;;6.11;72.31